sensor_id;sensor_type;location;lat;lon;timestamp;temperature;humidity
354;DHT22;165;53.592;10.044;2023-01-09T00:00:24;5.90;99.90
354;DHT22;165;53.592;10.044;2023-01-09T00:02:49;5.90;99.90
354;DHT22;165;53.592;10.044;2023-01-09T00:05:16;5.90;99.90
354;DHT22;165;53.592;10.044;2023-01-09T00:07:42;5.90;99.90
354;DHT22;165;53.592;10.044;2023-01-09T00:10:08;5.90;99.90
354;DHT22;165;53.592;10.044;2023-01-09T00:12:34;5.90;99.90
354;DHT22;165;53.592;10.044;2023-01-09T00:15:00;5.80;99.90
354;DHT22;165;53.592;10.044;2023-01-09T00:17:25;5.90;99.90
354;DHT22;165;53.592;10.044;2023-01-09T00:19:51;5.90;99.90
354;DHT22;165;53.592;10.044;2023-01-09T00:22:16;5.90;99.90
354;DHT22;165;53.592;10.044;2023-01-09T00:24:42;5.90;99.90
354;DHT22;165;53.592;10.044;2023-01-09T00:27:07;5.90;99.90
354;DHT22;165;53.592;10.044;2023-01-09T00:29:32;5.90;99.90
354;DHT22;165;53.592;10.044;2023-01-09T00:31:58;5.90;99.90
354;DHT22;165;53.592;10.044;2023-01-09T00:34:24;5.90;99.90
354;DHT22;165;53.592;10.044;2023-01-09T00:36:50;5.80;99.90
354;DHT22;165;53.592;10.044;2023-01-09T00:39:15;5.80;99.90
354;DHT22;165;53.592;10.044;2023-01-09T00:41:44;5.90;99.90
354;DHT22;165;53.592;10.044;2023-01-09T00:44:13;5.90;99.90
354;DHT22;165;53.592;10.044;2023-01-09T00:46:43;5.90;99.90
354;DHT22;165;53.592;10.044;2023-01-09T00:49:10;6.00;99.90
354;DHT22;165;53.592;10.044;2023-01-09T00:51:37;6.00;99.90
354;DHT22;165;53.592;10.044;2023-01-09T00:54:03;6.10;99.90
354;DHT22;165;53.592;10.044;2023-01-09T00:56:29;6.10;99.90
354;DHT22;165;53.592;10.044;2023-01-09T00:58:54;6.10;99.90
354;DHT22;165;53.592;10.044;2023-01-09T01:01:20;6.00;99.90
354;DHT22;165;53.592;10.044;2023-01-09T01:03:45;6.00;99.90
354;DHT22;165;53.592;10.044;2023-01-09T01:06:11;5.90;99.90
354;DHT22;165;53.592;10.044;2023-01-09T01:08:36;5.90;99.90
354;DHT22;165;53.592;10.044;2023-01-09T01:11:07;5.80;99.90
354;DHT22;165;53.592;10.044;2023-01-09T01:13:33;5.80;99.90
354;DHT22;165;53.592;10.044;2023-01-09T01:15:58;5.80;99.90
354;DHT22;165;53.592;10.044;2023-01-09T01:18:24;5.80;99.90
354;DHT22;165;53.592;10.044;2023-01-09T01:20:49;5.80;99.90
354;DHT22;165;53.592;10.044;2023-01-09T01:23:15;5.90;99.90
354;DHT22;165;53.592;10.044;2023-01-09T01:25:41;5.90;99.90
354;DHT22;165;53.592;10.044;2023-01-09T01:28:07;5.90;99.90
354;DHT22;165;53.592;10.044;2023-01-09T01:30:37;5.90;99.90
354;DHT22;165;53.592;10.044;2023-01-09T01:33:03;5.90;99.90
354;DHT22;165;53.592;10.044;2023-01-09T01:35:28;5.90;99.90
354;DHT22;165;53.592;10.044;2023-01-09T01:37:54;6.00;99.90
354;DHT22;165;53.592;10.044;2023-01-09T01:40:19;5.90;99.90
354;DHT22;165;53.592;10.044;2023-01-09T01:42:46;5.90;99.90
354;DHT22;165;53.592;10.044;2023-01-09T01:50:59;6.00;99.90
354;DHT22;165;53.592;10.044;2023-01-09T01:53:32;5.90;99.90
354;DHT22;165;53.592;10.044;2023-01-09T01:56:18;6.00;99.90
354;DHT22;165;53.592;10.044;2023-01-09T01:58:53;6.00;99.90
354;DHT22;165;53.592;10.044;2023-01-09T02:01:20;6.10;99.90
354;DHT22;165;53.592;10.044;2023-01-09T02:03:46;6.20;99.90
354;DHT22;165;53.592;10.044;2023-01-09T02:06:12;6.20;99.90
354;DHT22;165;53.592;10.044;2023-01-09T02:08:38;6.30;99.90
354;DHT22;165;53.592;10.044;2023-01-09T02:11:04;6.30;99.90
354;DHT22;165;53.592;10.044;2023-01-09T02:13:31;6.30;99.90
354;DHT22;165;53.592;10.044;2023-01-09T02:18:55;6.40;99.90
354;DHT22;165;53.592;10.044;2023-01-09T02:21:42;6.50;99.90
354;DHT22;165;53.592;10.044;2023-01-09T02:32:59;6.70;99.90
354;DHT22;165;53.592;10.044;2023-01-09T02:38:16;6.70;99.90
354;DHT22;165;53.592;10.044;2023-01-09T02:40:59;6.80;99.90
354;DHT22;165;53.592;10.044;2023-01-09T02:43:26;6.80;99.90
354;DHT22;165;53.592;10.044;2023-01-09T02:45:52;6.80;99.90
354;DHT22;165;53.592;10.044;2023-01-09T02:48:17;6.80;99.90
354;DHT22;165;53.592;10.044;2023-01-09T02:51:01;6.80;99.90
354;DHT22;165;53.592;10.044;2023-01-09T02:56:57;6.80;99.90
354;DHT22;165;53.592;10.044;2023-01-09T03:10:37;7.00;99.90
354;DHT22;165;53.592;10.044;2023-01-09T03:13:05;7.00;99.90
354;DHT22;165;53.592;10.044;2023-01-09T03:15:35;7.00;99.90
354;DHT22;165;53.592;10.044;2023-01-09T03:18:04;7.00;99.90
354;DHT22;165;53.592;10.044;2023-01-09T03:20:32;7.00;99.90
354;DHT22;165;53.592;10.044;2023-01-09T03:23:01;7.00;99.90
354;DHT22;165;53.592;10.044;2023-01-09T03:25:28;7.10;99.90
354;DHT22;165;53.592;10.044;2023-01-09T03:27:57;7.00;99.90
354;DHT22;165;53.592;10.044;2023-01-09T03:30:24;7.10;99.90
354;DHT22;165;53.592;10.044;2023-01-09T03:32:50;7.10;99.90
354;DHT22;165;53.592;10.044;2023-01-09T03:35:16;7.10;99.90
354;DHT22;165;53.592;10.044;2023-01-09T03:37:41;7.10;99.90
354;DHT22;165;53.592;10.044;2023-01-09T03:40:07;7.10;99.90
354;DHT22;165;53.592;10.044;2023-01-09T03:42:33;7.10;99.90
354;DHT22;165;53.592;10.044;2023-01-09T03:44:58;7.20;99.90
354;DHT22;165;53.592;10.044;2023-01-09T03:47:24;7.20;99.90
354;DHT22;165;53.592;10.044;2023-01-09T03:49:49;7.20;99.90
354;DHT22;165;53.592;10.044;2023-01-09T03:52:15;7.20;99.90
354;DHT22;165;53.592;10.044;2023-01-09T03:54:40;7.20;99.90
354;DHT22;165;53.592;10.044;2023-01-09T03:57:06;7.20;99.90
354;DHT22;165;53.592;10.044;2023-01-09T03:59:31;7.30;99.90
354;DHT22;165;53.592;10.044;2023-01-09T04:01:56;7.30;99.90
354;DHT22;165;53.592;10.044;2023-01-09T04:04:22;7.30;99.90
354;DHT22;165;53.592;10.044;2023-01-09T04:06:47;7.40;99.90
354;DHT22;165;53.592;10.044;2023-01-09T04:09:13;7.30;99.90
354;DHT22;165;53.592;10.044;2023-01-09T04:11:38;7.30;99.90
354;DHT22;165;53.592;10.044;2023-01-09T04:14:04;7.30;99.90
354;DHT22;165;53.592;10.044;2023-01-09T04:16:29;7.40;99.90
354;DHT22;165;53.592;10.044;2023-01-09T04:18:55;7.30;99.90
354;DHT22;165;53.592;10.044;2023-01-09T04:21:20;7.30;99.90
354;DHT22;165;53.592;10.044;2023-01-09T04:23:45;7.40;99.90
354;DHT22;165;53.592;10.044;2023-01-09T04:26:11;7.40;99.90
354;DHT22;165;53.592;10.044;2023-01-09T04:28:36;7.40;99.90
354;DHT22;165;53.592;10.044;2023-01-09T04:31:02;7.40;99.90
354;DHT22;165;53.592;10.044;2023-01-09T04:33:28;7.40;99.90
354;DHT22;165;53.592;10.044;2023-01-09T04:35:53;7.40;99.90
354;DHT22;165;53.592;10.044;2023-01-09T04:38:19;7.40;99.90
354;DHT22;165;53.592;10.044;2023-01-09T04:40:46;7.40;99.90
354;DHT22;165;53.592;10.044;2023-01-09T04:43:12;7.40;99.90
354;DHT22;165;53.592;10.044;2023-01-09T04:45:38;7.40;99.90
354;DHT22;165;53.592;10.044;2023-01-09T04:48:03;7.40;99.90
354;DHT22;165;53.592;10.044;2023-01-09T04:50:29;7.40;99.90
354;DHT22;165;53.592;10.044;2023-01-09T04:52:54;7.40;99.90
354;DHT22;165;53.592;10.044;2023-01-09T04:55:20;7.40;99.90
354;DHT22;165;53.592;10.044;2023-01-09T04:57:45;7.40;99.90
354;DHT22;165;53.592;10.044;2023-01-09T05:00:11;7.40;99.90
354;DHT22;165;53.592;10.044;2023-01-09T05:02:37;7.40;99.90
354;DHT22;165;53.592;10.044;2023-01-09T05:05:04;7.50;99.90
354;DHT22;165;53.592;10.044;2023-01-09T05:07:30;7.40;99.90
354;DHT22;165;53.592;10.044;2023-01-09T05:09:55;7.40;99.90
354;DHT22;165;53.592;10.044;2023-01-09T05:12:21;7.40;99.90
354;DHT22;165;53.592;10.044;2023-01-09T05:14:46;7.30;99.90
354;DHT22;165;53.592;10.044;2023-01-09T05:17:11;7.30;99.90
354;DHT22;165;53.592;10.044;2023-01-09T05:19:37;7.30;99.90
354;DHT22;165;53.592;10.044;2023-01-09T05:22:02;7.30;99.90
354;DHT22;165;53.592;10.044;2023-01-09T05:24:28;7.30;99.90
354;DHT22;165;53.592;10.044;2023-01-09T05:26:53;7.30;99.90
354;DHT22;165;53.592;10.044;2023-01-09T05:29:19;7.30;99.90
354;DHT22;165;53.592;10.044;2023-01-09T05:31:44;7.30;99.90
354;DHT22;165;53.592;10.044;2023-01-09T05:34:10;7.40;99.90
354;DHT22;165;53.592;10.044;2023-01-09T05:36:35;7.40;99.90
354;DHT22;165;53.592;10.044;2023-01-09T05:39:01;7.40;99.90
354;DHT22;165;53.592;10.044;2023-01-09T05:41:26;7.40;99.90
354;DHT22;165;53.592;10.044;2023-01-09T05:43:52;7.40;99.90
354;DHT22;165;53.592;10.044;2023-01-09T05:46:17;7.40;99.90
354;DHT22;165;53.592;10.044;2023-01-09T05:48:43;7.50;99.90
354;DHT22;165;53.592;10.044;2023-01-09T05:51:08;7.50;99.90
354;DHT22;165;53.592;10.044;2023-01-09T05:53:34;7.50;99.90
354;DHT22;165;53.592;10.044;2023-01-09T05:55:59;7.50;99.90
354;DHT22;165;53.592;10.044;2023-01-09T05:58:24;7.50;99.90
354;DHT22;165;53.592;10.044;2023-01-09T06:00:52;7.50;99.90
354;DHT22;165;53.592;10.044;2023-01-09T06:03:17;7.60;99.90
354;DHT22;165;53.592;10.044;2023-01-09T06:05:43;7.50;99.90
354;DHT22;165;53.592;10.044;2023-01-09T06:08:08;7.60;99.90
354;DHT22;165;53.592;10.044;2023-01-09T06:10:34;7.50;99.90
354;DHT22;165;53.592;10.044;2023-01-09T06:12:59;7.50;99.90
354;DHT22;165;53.592;10.044;2023-01-09T06:15:26;7.50;99.90
354;DHT22;165;53.592;10.044;2023-01-09T06:17:52;7.50;99.90
354;DHT22;165;53.592;10.044;2023-01-09T06:20:17;7.50;99.90
354;DHT22;165;53.592;10.044;2023-01-09T06:22:43;7.50;99.90
354;DHT22;165;53.592;10.044;2023-01-09T06:25:08;7.50;99.90
354;DHT22;165;53.592;10.044;2023-01-09T06:27:34;7.50;99.90
354;DHT22;165;53.592;10.044;2023-01-09T06:29:59;7.50;99.90
354;DHT22;165;53.592;10.044;2023-01-09T06:32:25;7.50;99.90
354;DHT22;165;53.592;10.044;2023-01-09T06:34:50;7.50;99.90
354;DHT22;165;53.592;10.044;2023-01-09T06:37:16;7.50;99.90
354;DHT22;165;53.592;10.044;2023-01-09T06:39:41;7.50;99.90
354;DHT22;165;53.592;10.044;2023-01-09T06:42:07;7.50;99.90
354;DHT22;165;53.592;10.044;2023-01-09T06:44:32;7.50;99.90
354;DHT22;165;53.592;10.044;2023-01-09T06:46:58;7.50;99.90
354;DHT22;165;53.592;10.044;2023-01-09T06:49:23;7.50;99.90
354;DHT22;165;53.592;10.044;2023-01-09T06:51:50;7.50;99.90
354;DHT22;165;53.592;10.044;2023-01-09T06:54:16;7.50;99.90
354;DHT22;165;53.592;10.044;2023-01-09T06:56:42;7.50;99.90
354;DHT22;165;53.592;10.044;2023-01-09T06:59:08;7.50;99.90
354;DHT22;165;53.592;10.044;2023-01-09T07:01:33;7.40;99.90
354;DHT22;165;53.592;10.044;2023-01-09T07:03:58;7.40;99.90
354;DHT22;165;53.592;10.044;2023-01-09T07:06:24;7.40;99.90
354;DHT22;165;53.592;10.044;2023-01-09T07:08:49;7.40;99.90
354;DHT22;165;53.592;10.044;2023-01-09T07:11:15;7.50;99.90
354;DHT22;165;53.592;10.044;2023-01-09T07:13:40;7.40;99.90
354;DHT22;165;53.592;10.044;2023-01-09T07:16:06;7.40;99.90
354;DHT22;165;53.592;10.044;2023-01-09T07:18:32;7.50;99.90
354;DHT22;165;53.592;10.044;2023-01-09T07:20:57;7.50;99.90
354;DHT22;165;53.592;10.044;2023-01-09T07:23:22;7.50;99.90
354;DHT22;165;53.592;10.044;2023-01-09T07:25:49;7.50;99.90
354;DHT22;165;53.592;10.044;2023-01-09T07:28:15;7.50;99.90
354;DHT22;165;53.592;10.044;2023-01-09T07:30:40;7.50;99.90
354;DHT22;165;53.592;10.044;2023-01-09T07:33:06;7.50;99.90
354;DHT22;165;53.592;10.044;2023-01-09T07:35:31;7.60;99.90
354;DHT22;165;53.592;10.044;2023-01-09T07:37:57;7.50;99.90
354;DHT22;165;53.592;10.044;2023-01-09T07:40:22;7.40;99.90
354;DHT22;165;53.592;10.044;2023-01-09T07:42:48;7.40;99.90
354;DHT22;165;53.592;10.044;2023-01-09T07:45:16;7.30;99.90
354;DHT22;165;53.592;10.044;2023-01-09T07:47:41;7.40;99.90
354;DHT22;165;53.592;10.044;2023-01-09T07:50:08;7.40;99.90
354;DHT22;165;53.592;10.044;2023-01-09T07:52:33;7.40;99.90
354;DHT22;165;53.592;10.044;2023-01-09T07:54:59;7.40;99.90
354;DHT22;165;53.592;10.044;2023-01-09T07:57:24;7.40;99.90
354;DHT22;165;53.592;10.044;2023-01-09T07:59:50;7.40;99.90
354;DHT22;165;53.592;10.044;2023-01-09T08:02:15;7.40;99.90
354;DHT22;165;53.592;10.044;2023-01-09T08:04:40;7.40;99.90
354;DHT22;165;53.592;10.044;2023-01-09T08:07:09;7.50;99.90
354;DHT22;165;53.592;10.044;2023-01-09T08:09:34;7.50;99.90
354;DHT22;165;53.592;10.044;2023-01-09T08:12:00;7.50;99.90
354;DHT22;165;53.592;10.044;2023-01-09T08:14:25;7.50;99.90
354;DHT22;165;53.592;10.044;2023-01-09T08:16:50;7.50;99.90
354;DHT22;165;53.592;10.044;2023-01-09T08:19:16;7.50;99.90
354;DHT22;165;53.592;10.044;2023-01-09T08:21:42;7.50;99.90
354;DHT22;165;53.592;10.044;2023-01-09T08:24:08;7.50;99.90
354;DHT22;165;53.592;10.044;2023-01-09T08:26:34;7.50;99.90
354;DHT22;165;53.592;10.044;2023-01-09T08:28:59;7.40;99.90
354;DHT22;165;53.592;10.044;2023-01-09T08:31:25;7.40;99.90
354;DHT22;165;53.592;10.044;2023-01-09T08:33:50;7.40;99.90
354;DHT22;165;53.592;10.044;2023-01-09T08:36:15;7.50;99.90
354;DHT22;165;53.592;10.044;2023-01-09T08:38:41;7.40;99.90
354;DHT22;165;53.592;10.044;2023-01-09T08:41:06;7.40;99.90
354;DHT22;165;53.592;10.044;2023-01-09T08:43:32;7.30;99.90
354;DHT22;165;53.592;10.044;2023-01-09T08:45:58;7.40;99.90
354;DHT22;165;53.592;10.044;2023-01-09T08:48:23;7.50;99.90
354;DHT22;165;53.592;10.044;2023-01-09T08:50:48;7.50;99.90
354;DHT22;165;53.592;10.044;2023-01-09T08:53:14;7.60;99.90
354;DHT22;165;53.592;10.044;2023-01-09T08:55:40;7.60;99.90
354;DHT22;165;53.592;10.044;2023-01-09T08:58:06;7.60;99.90
354;DHT22;165;53.592;10.044;2023-01-09T09:00:31;7.70;99.90
354;DHT22;165;53.592;10.044;2023-01-09T09:02:58;7.70;99.90
354;DHT22;165;53.592;10.044;2023-01-09T09:05:25;7.80;99.90
354;DHT22;165;53.592;10.044;2023-01-09T09:07:52;7.90;99.90
354;DHT22;165;53.592;10.044;2023-01-09T09:10:18;7.80;99.90
354;DHT22;165;53.592;10.044;2023-01-09T09:12:46;7.80;99.90
354;DHT22;165;53.592;10.044;2023-01-09T09:15:12;7.80;99.90
354;DHT22;165;53.592;10.044;2023-01-09T09:17:39;7.80;99.90
354;DHT22;165;53.592;10.044;2023-01-09T09:20:05;7.80;99.90
354;DHT22;165;53.592;10.044;2023-01-09T09:22:31;7.80;99.90
354;DHT22;165;53.592;10.044;2023-01-09T09:24:56;7.80;99.90
354;DHT22;165;53.592;10.044;2023-01-09T09:27:22;7.80;99.90
354;DHT22;165;53.592;10.044;2023-01-09T09:29:47;7.80;99.90
354;DHT22;165;53.592;10.044;2023-01-09T09:32:13;8.00;99.90
354;DHT22;165;53.592;10.044;2023-01-09T09:34:38;8.60;99.90
354;DHT22;165;53.592;10.044;2023-01-09T09:37:04;8.80;99.90
354;DHT22;165;53.592;10.044;2023-01-09T09:39:29;8.60;99.90
354;DHT22;165;53.592;10.044;2023-01-09T09:45:23;8.50;99.90
354;DHT22;165;53.592;10.044;2023-01-09T09:50:51;8.30;99.90
354;DHT22;165;53.592;10.044;2023-01-09T09:53:24;8.10;99.90
354;DHT22;165;53.592;10.044;2023-01-09T09:55:51;8.00;99.90
354;DHT22;165;53.592;10.044;2023-01-09T10:00:49;8.00;99.90
354;DHT22;165;53.592;10.044;2023-01-09T10:03:36;7.90;99.90
354;DHT22;165;53.592;10.044;2023-01-09T10:06:12;7.90;99.90
354;DHT22;165;53.592;10.044;2023-01-09T10:11:38;8.00;99.90
354;DHT22;165;53.592;10.044;2023-01-09T10:14:12;8.00;99.90
354;DHT22;165;53.592;10.044;2023-01-09T10:16:56;7.90;99.90
354;DHT22;165;53.592;10.044;2023-01-09T10:19:41;7.90;99.90
354;DHT22;165;53.592;10.044;2023-01-09T10:27:40;8.20;99.90
354;DHT22;165;53.592;10.044;2023-01-09T10:33:31;8.00;99.90
354;DHT22;165;53.592;10.044;2023-01-09T10:36:23;8.00;99.90
354;DHT22;165;53.592;10.044;2023-01-09T10:38:54;8.00;99.90
354;DHT22;165;53.592;10.044;2023-01-09T10:41:28;8.10;99.90
354;DHT22;165;53.592;10.044;2023-01-09T10:44:01;7.90;99.90
354;DHT22;165;53.592;10.044;2023-01-09T10:46:37;7.80;99.90
354;DHT22;165;53.592;10.044;2023-01-09T10:49:10;7.80;99.90
354;DHT22;165;53.592;10.044;2023-01-09T10:51:49;7.80;99.90
354;DHT22;165;53.592;10.044;2023-01-09T10:54:20;7.80;99.90
354;DHT22;165;53.592;10.044;2023-01-09T10:56:53;7.90;99.90
354;DHT22;165;53.592;10.044;2023-01-09T10:59:19;7.90;99.90
354;DHT22;165;53.592;10.044;2023-01-09T11:01:45;8.00;99.90
354;DHT22;165;53.592;10.044;2023-01-09T11:04:23;8.20;99.90
354;DHT22;165;53.592;10.044;2023-01-09T11:06:54;8.30;99.90
354;DHT22;165;53.592;10.044;2023-01-09T11:09:21;8.10;99.90
354;DHT22;165;53.592;10.044;2023-01-09T11:11:46;8.20;99.90
354;DHT22;165;53.592;10.044;2023-01-09T11:14:15;8.20;99.90
354;DHT22;165;53.592;10.044;2023-01-09T11:16:51;8.10;99.90
354;DHT22;165;53.592;10.044;2023-01-09T11:19:17;8.20;99.90
354;DHT22;165;53.592;10.044;2023-01-09T11:21:43;8.10;99.90
354;DHT22;165;53.592;10.044;2023-01-09T11:27:12;9.30;99.90
354;DHT22;165;53.592;10.044;2023-01-09T11:29:42;9.30;99.90
354;DHT22;165;53.592;10.044;2023-01-09T11:32:22;9.30;99.90
354;DHT22;165;53.592;10.044;2023-01-09T11:34:48;9.20;99.90
354;DHT22;165;53.592;10.044;2023-01-09T11:37:21;9.00;99.90
354;DHT22;165;53.592;10.044;2023-01-09T11:39:47;9.20;99.90
354;DHT22;165;53.592;10.044;2023-01-09T11:42:21;9.40;99.90
354;DHT22;165;53.592;10.044;2023-01-09T11:44:46;9.50;99.90
354;DHT22;165;53.592;10.044;2023-01-09T11:47:37;9.20;99.90
354;DHT22;165;53.592;10.044;2023-01-09T11:50:32;8.90;99.90
354;DHT22;165;53.592;10.044;2023-01-09T11:55:32;8.60;99.90
354;DHT22;165;53.592;10.044;2023-01-09T11:57:57;8.50;99.90
354;DHT22;165;53.592;10.044;2023-01-09T12:00:26;8.40;99.90
354;DHT22;165;53.592;10.044;2023-01-09T12:05:43;8.60;99.90
354;DHT22;165;53.592;10.044;2023-01-09T12:08:25;8.60;99.90
354;DHT22;165;53.592;10.044;2023-01-09T12:11:16;8.50;99.90
354;DHT22;165;53.592;10.044;2023-01-09T12:13:59;8.30;99.90
354;DHT22;165;53.592;10.044;2023-01-09T12:16:38;8.30;99.90
354;DHT22;165;53.592;10.044;2023-01-09T12:22:04;8.40;99.90
354;DHT22;165;53.592;10.044;2023-01-09T12:33:15;8.60;99.90
354;DHT22;165;53.592;10.044;2023-01-09T12:35:48;8.70;99.90
354;DHT22;165;53.592;10.044;2023-01-09T12:38:18;8.60;99.90
354;DHT22;165;53.592;10.044;2023-01-09T12:43:18;8.60;99.90
354;DHT22;165;53.592;10.044;2023-01-09T12:51:17;8.60;99.90
354;DHT22;165;53.592;10.044;2023-01-09T12:54:13;8.50;99.90
354;DHT22;165;53.592;10.044;2023-01-09T12:56:57;8.60;99.90
354;DHT22;165;53.592;10.044;2023-01-09T13:02:08;8.70;99.90
354;DHT22;165;53.592;10.044;2023-01-09T13:04:43;8.70;99.90
354;DHT22;165;53.592;10.044;2023-01-09T13:07:19;8.70;99.90
354;DHT22;165;53.592;10.044;2023-01-09T13:12:43;8.80;99.90
354;DHT22;165;53.592;10.044;2023-01-09T13:15:56;8.80;99.90
354;DHT22;165;53.592;10.044;2023-01-09T13:18:29;8.80;99.90
354;DHT22;165;53.592;10.044;2023-01-09T13:20:57;9.00;99.90
354;DHT22;165;53.592;10.044;2023-01-09T13:23:36;9.10;99.90
354;DHT22;165;53.592;10.044;2023-01-09T13:26:09;9.20;99.90
354;DHT22;165;53.592;10.044;2023-01-09T13:34:23;9.20;99.90
354;DHT22;165;53.592;10.044;2023-01-09T13:36:53;9.20;99.90
354;DHT22;165;53.592;10.044;2023-01-09T13:41:49;9.00;99.90
354;DHT22;165;53.592;10.044;2023-01-09T13:44:24;8.90;99.90
354;DHT22;165;53.592;10.044;2023-01-09T13:46:56;8.90;99.90
354;DHT22;165;53.592;10.044;2023-01-09T13:49:29;8.80;99.90
354;DHT22;165;53.592;10.044;2023-01-09T13:51:57;8.80;99.90
354;DHT22;165;53.592;10.044;2023-01-09T13:59:42;8.60;99.90
354;DHT22;165;53.592;10.044;2023-01-09T14:05:07;8.60;99.90
354;DHT22;165;53.592;10.044;2023-01-09T14:07:44;8.60;99.90
354;DHT22;165;53.592;10.044;2023-01-09T14:13:05;8.60;99.90
354;DHT22;165;53.592;10.044;2023-01-09T14:15:34;8.60;99.90
354;DHT22;165;53.592;10.044;2023-01-09T14:18:02;8.60;99.90
354;DHT22;165;53.592;10.044;2023-01-09T14:20:40;8.60;99.90
354;DHT22;165;53.592;10.044;2023-01-09T14:23:06;8.60;99.90
354;DHT22;165;53.592;10.044;2023-01-09T14:25:32;8.50;99.90
354;DHT22;165;53.592;10.044;2023-01-09T14:30:28;8.40;99.90
354;DHT22;165;53.592;10.044;2023-01-09T14:33:23;8.40;99.90
354;DHT22;165;53.592;10.044;2023-01-09T14:36:01;8.40;99.90
354;DHT22;165;53.592;10.044;2023-01-09T14:41:23;8.30;99.90
354;DHT22;165;53.592;10.044;2023-01-09T14:46:24;8.30;99.90
354;DHT22;165;53.592;10.044;2023-01-09T14:48:59;8.20;99.90
354;DHT22;165;53.592;10.044;2023-01-09T14:51:28;8.20;99.90
354;DHT22;165;53.592;10.044;2023-01-09T14:53:56;8.20;99.90
354;DHT22;165;53.592;10.044;2023-01-09T14:56:25;8.20;99.90
354;DHT22;165;53.592;10.044;2023-01-09T14:59:02;8.20;99.90
354;DHT22;165;53.592;10.044;2023-01-09T15:01:28;8.20;99.90
354;DHT22;165;53.592;10.044;2023-01-09T15:03:57;8.20;99.90
354;DHT22;165;53.592;10.044;2023-01-09T15:06:28;8.30;99.90
354;DHT22;165;53.592;10.044;2023-01-09T15:09:31;8.30;99.90
354;DHT22;165;53.592;10.044;2023-01-09T15:12:06;8.20;99.90
354;DHT22;165;53.592;10.044;2023-01-09T15:14:36;8.20;99.90
354;DHT22;165;53.592;10.044;2023-01-09T15:17:03;8.20;99.90
354;DHT22;165;53.592;10.044;2023-01-09T15:19:29;8.10;99.90
354;DHT22;165;53.592;10.044;2023-01-09T15:21:56;8.10;99.90
354;DHT22;165;53.592;10.044;2023-01-09T15:24:25;8.10;99.90
354;DHT22;165;53.592;10.044;2023-01-09T15:26:52;8.10;99.90
354;DHT22;165;53.592;10.044;2023-01-09T15:29:18;8.00;99.90
354;DHT22;165;53.592;10.044;2023-01-09T15:31:46;8.10;99.90
354;DHT22;165;53.592;10.044;2023-01-09T15:34:23;8.00;99.90
354;DHT22;165;53.592;10.044;2023-01-09T15:36:50;8.00;99.90
354;DHT22;165;53.592;10.044;2023-01-09T15:39:20;8.00;99.90
354;DHT22;165;53.592;10.044;2023-01-09T15:41:46;8.00;99.90
354;DHT22;165;53.592;10.044;2023-01-09T15:44:22;8.00;99.90
354;DHT22;165;53.592;10.044;2023-01-09T15:46:49;8.00;99.90
354;DHT22;165;53.592;10.044;2023-01-09T15:49:16;8.20;99.90
354;DHT22;165;53.592;10.044;2023-01-09T15:51:43;8.10;99.90
354;DHT22;165;53.592;10.044;2023-01-09T15:54:22;8.10;99.90
354;DHT22;165;53.592;10.044;2023-01-09T15:56:49;8.10;99.90
354;DHT22;165;53.592;10.044;2023-01-09T15:59:25;8.10;99.90
354;DHT22;165;53.592;10.044;2023-01-09T16:01:59;8.00;99.90
354;DHT22;165;53.592;10.044;2023-01-09T16:04:26;8.10;99.90
354;DHT22;165;53.592;10.044;2023-01-09T16:06:51;8.10;99.90
354;DHT22;165;53.592;10.044;2023-01-09T16:09:24;8.20;99.90
354;DHT22;165;53.592;10.044;2023-01-09T16:11:55;8.20;99.90
354;DHT22;165;53.592;10.044;2023-01-09T16:14:28;8.20;99.90
354;DHT22;165;53.592;10.044;2023-01-09T16:17:07;8.10;99.90
354;DHT22;165;53.592;10.044;2023-01-09T16:19:48;8.10;99.90
354;DHT22;165;53.592;10.044;2023-01-09T16:22:34;8.20;99.90
354;DHT22;165;53.592;10.044;2023-01-09T16:25:02;8.20;99.90
354;DHT22;165;53.592;10.044;2023-01-09T16:27:34;8.20;99.90
354;DHT22;165;53.592;10.044;2023-01-09T16:30:04;8.20;99.90
354;DHT22;165;53.592;10.044;2023-01-09T16:32:32;8.20;99.90
354;DHT22;165;53.592;10.044;2023-01-09T16:35:05;8.20;99.90
354;DHT22;165;53.592;10.044;2023-01-09T16:37:31;8.10;99.90
354;DHT22;165;53.592;10.044;2023-01-09T16:42:43;8.10;99.90
354;DHT22;165;53.592;10.044;2023-01-09T16:45:09;8.10;99.90
354;DHT22;165;53.592;10.044;2023-01-09T16:47:34;8.10;99.90
354;DHT22;165;53.592;10.044;2023-01-09T16:50:00;8.10;99.90
354;DHT22;165;53.592;10.044;2023-01-09T16:52:25;8.10;99.90
354;DHT22;165;53.592;10.044;2023-01-09T16:54:51;8.20;99.90
354;DHT22;165;53.592;10.044;2023-01-09T16:57:17;8.10;99.90
354;DHT22;165;53.592;10.044;2023-01-09T16:59:43;8.10;99.90
354;DHT22;165;53.592;10.044;2023-01-09T17:02:18;8.10;99.90
354;DHT22;165;53.592;10.044;2023-01-09T17:04:44;8.10;99.90
354;DHT22;165;53.592;10.044;2023-01-09T17:07:14;8.10;99.90
354;DHT22;165;53.592;10.044;2023-01-09T17:09:41;8.10;99.90
354;DHT22;165;53.592;10.044;2023-01-09T17:12:19;8.10;99.90
354;DHT22;165;53.592;10.044;2023-01-09T17:14:46;8.10;99.90
354;DHT22;165;53.592;10.044;2023-01-09T17:17:12;8.10;99.90
354;DHT22;165;53.592;10.044;2023-01-09T17:19:37;8.10;99.90
354;DHT22;165;53.592;10.044;2023-01-09T17:22:04;8.10;99.90
354;DHT22;165;53.592;10.044;2023-01-09T17:24:29;8.00;99.90
354;DHT22;165;53.592;10.044;2023-01-09T17:26:55;8.00;99.90
354;DHT22;165;53.592;10.044;2023-01-09T17:29:21;8.00;99.90
354;DHT22;165;53.592;10.044;2023-01-09T17:31:46;8.00;99.90
354;DHT22;165;53.592;10.044;2023-01-09T17:34:11;8.00;99.90
354;DHT22;165;53.592;10.044;2023-01-09T17:39:31;7.90;99.90
354;DHT22;165;53.592;10.044;2023-01-09T17:41:57;8.00;99.90
354;DHT22;165;53.592;10.044;2023-01-09T17:44:22;7.90;99.90
354;DHT22;165;53.592;10.044;2023-01-09T17:46:47;7.90;99.90
354;DHT22;165;53.592;10.044;2023-01-09T17:49:15;7.90;99.90
354;DHT22;165;53.592;10.044;2023-01-09T17:51:41;7.90;99.90
354;DHT22;165;53.592;10.044;2023-01-09T17:54:06;7.90;99.90
354;DHT22;165;53.592;10.044;2023-01-09T17:56:33;7.90;99.90
354;DHT22;165;53.592;10.044;2023-01-09T17:58:59;7.90;99.90
354;DHT22;165;53.592;10.044;2023-01-09T18:01:25;7.90;99.90
354;DHT22;165;53.592;10.044;2023-01-09T18:03:51;7.90;99.90
354;DHT22;165;53.592;10.044;2023-01-09T18:06:18;7.90;99.90
354;DHT22;165;53.592;10.044;2023-01-09T18:08:44;7.90;99.90
354;DHT22;165;53.592;10.044;2023-01-09T18:11:15;7.90;99.90
354;DHT22;165;53.592;10.044;2023-01-09T18:13:41;7.90;99.90
354;DHT22;165;53.592;10.044;2023-01-09T18:16:11;7.90;99.90
354;DHT22;165;53.592;10.044;2023-01-09T18:18:37;7.90;99.90
354;DHT22;165;53.592;10.044;2023-01-09T18:21:03;7.90;99.90
354;DHT22;165;53.592;10.044;2023-01-09T18:23:29;7.90;99.90
354;DHT22;165;53.592;10.044;2023-01-09T18:25:54;7.90;99.90
354;DHT22;165;53.592;10.044;2023-01-09T18:28:20;7.90;99.90
354;DHT22;165;53.592;10.044;2023-01-09T18:30:45;7.80;99.90
354;DHT22;165;53.592;10.044;2023-01-09T18:33:14;7.90;99.90
354;DHT22;165;53.592;10.044;2023-01-09T18:35:41;7.80;99.90
354;DHT22;165;53.592;10.044;2023-01-09T18:38:07;7.90;99.90
354;DHT22;165;53.592;10.044;2023-01-09T18:40:32;7.90;99.90
354;DHT22;165;53.592;10.044;2023-01-09T18:42:58;7.90;99.90